Time;durP1;ratioP1;P1;durP2;ratioP2;P2;SDS_P1;SDS_P2;PMS_P1;PMS_P2;Temp;Humidity;BMP_temperature;BMP_pressure;BME280_temperature;BME280_humidity;BME280_pressure;Samples;Min_cycle;Max_cycle;Signal;HPM_P1;HPM_P2
2024/02/19 08:17:55;;;;;;;8.93;2.37;;;11.80;99.90;;;;;;4934854;29;20320;-79
2024/02/19 08:20:21;;;;;;;7.80;2.80;;;11.90;99.90;;;;;;4936602;29;20208;-78
2024/02/19 08:22:48;;;;;;;4.97;2.03;;;11.90;99.90;;;;;;4931678;29;20226;-78
2024/02/19 08:25:15;;;;;;;9.40;2.43;;;12.10;99.90;;;;;;4917758;29;20245;-79
2024/02/19 08:27:42;;;;;;;6.87;2.13;;;12.10;99.90;;;;;;4917880;29;20624;-78
2024/02/19 08:30:09;;;;;;;5.60;2.17;;;12.10;99.90;;;;;;4918250;29;20210;-79
2024/02/19 08:32:36;;;;;;;10.53;1.80;;;12.20;99.90;;;;;;4917338;29;20320;-80
2024/02/19 08:35:05;;;;;;;10.10;2.03;;;12.70;99.90;;;;;;4917640;29;20584;-79
2024/02/19 08:37:32;;;;;;;4.83;2.33;;;13.00;99.90;;;;;;4912888;29;20263;-79
2024/02/19 08:39:59;;;;;;;5.83;2.00;;;13.30;99.90;;;;;;4931050;29;20299;-79
2024/02/19 08:42:26;;;;;;;7.13;2.13;;;13.70;99.90;;;;;;4918589;29;20292;-79
2024/02/19 08:44:53;;;;;;;7.33;2.47;;;13.70;99.90;;;;;;4917224;29;20630;-78
2024/02/19 08:47:20;;;;;;;3.57;1.97;;;13.40;99.90;;;;;;4916721;29;20310;-79
2024/02/19 08:49:47;;;;;;;8.00;2.20;;;13.10;99.90;;;;;;4917072;29;20259;-78
2024/02/19 08:52:15;;;;;;;5.33;1.70;;;12.90;99.90;;;;;;4916893;29;20596;-78
2024/02/19 08:54:42;;;;;;;4.53;1.87;;;12.70;99.90;;;;;;4917006;29;20208;-79
2024/02/19 08:57:09;;;;;;;4.30;1.73;;;12.70;99.90;;;;;;4916755;29;20241;-78
2024/02/19 08:59:37;;;;;;;3.80;1.80;;;12.70;99.90;;;;;;4916921;29;20210;-79
2024/02/19 09:02:04;;;;;;;4.57;1.73;;;12.60;99.90;;;;;;4917161;29;20214;-77
2024/02/19 09:04:31;;;;;;;5.80;2.10;;;12.40;99.90;;;;;;4918976;29;20771;-81
2024/02/19 09:06:58;;;;;;;5.93;2.00;;;12.20;99.90;;;;;;4916937;29;20251;-76
2024/02/19 09:09:26;;;;;;;6.57;2.40;;;12.00;99.90;;;;;;4917042;29;20216;-76
2024/02/19 09:11:53;;;;;;;4.43;2.07;;;11.90;99.90;;;;;;4916357;29;20213;-84
2024/02/19 09:14:20;;;;;;;5.83;2.70;;;11.70;99.90;;;;;;4918422;29;20240;-75
2024/02/19 09:16:47;;;;;;;10.63;1.83;;;11.70;99.90;;;;;;4914286;29;20217;-76
2024/02/19 09:19:15;;;;;;;5.20;2.10;;;11.70;99.90;;;;;;4914137;29;20269;-78
2024/02/19 09:21:43;;;;;;;7.00;2.73;;;11.50;99.90;;;;;;4915034;29;20213;-86
2024/02/19 09:24:12;;;;;;;7.83;2.90;;;11.30;99.90;;;;;;4917258;29;20233;-81
2024/02/19 09:26:40;;;;;;;7.20;2.77;;;11.50;99.90;;;;;;4916640;29;20294;-89
2024/02/19 09:29:07;;;;;;;8.07;3.60;;;11.60;99.90;;;;;;4917588;29;20300;-82
2024/02/19 09:31:34;;;;;;;8.50;3.60;;;11.50;99.90;;;;;;4916996;29;20687;-83
2024/02/19 09:34:01;;;;;;;8.33;3.27;;;11.70;99.90;;;;;;4917282;29;20233;-89
2024/02/19 09:36:28;;;;;;;7.90;3.87;;;11.50;99.90;;;;;;4916986;29;20209;-81
2024/02/19 09:38:55;;;;;;;10.27;4.73;;;11.30;99.90;;;;;;4917205;29;20304;-87
2024/02/19 09:41:22;;;;;;;13.27;4.33;;;11.10;99.90;;;;;;4917001;29;20201;-84
2024/02/19 09:43:51;;;;;;;11.67;4.47;;;11.10;99.90;;;;;;4916012;29;20687;-79
2024/02/19 09:46:22;;;;;;;9.63;4.50;;;10.80;99.90;;;;;;4916190;29;20247;-79
2024/02/19 09:48:50;;;;;;;13.93;4.97;;;10.90;99.90;;;;;;4916892;29;20224;-81
2024/02/19 09:51:18;;;;;;;10.83;4.57;;;11.10;99.90;;;;;;4916470;29;20620;-82
2024/02/19 09:53:50;;;;;;;11.33;4.50;;;11.20;99.90;;;;;;4916618;29;20237;-79
2024/02/19 09:56:18;;;;;;;14.80;4.70;;;11.30;99.90;;;;;;4916696;29;20300;-81
2024/02/19 09:58:48;;;;;;;10.07;4.93;;;11.30;99.90;;;;;;4916480;29;20218;-82
2024/02/19 10:01:17;;;;;;;14.17;4.30;;;11.50;99.90;;;;;;4916304;29;20580;-83
2024/02/19 10:03:43;;;;;;;9.00;3.40;;;11.50;99.90;;;;;;4915820;29;20800;-79
2024/02/19 10:06:10;;;;;;;8.17;3.63;;;11.10;99.90;;;;;;4915515;29;20640;-80
2024/02/19 10:08:38;;;;;;;7.03;2.70;;;11.00;99.90;;;;;;4916705;29;20687;-83
2024/02/19 10:11:08;;;;;;;9.20;3.67;;;11.10;99.90;;;;;;4916392;29;20300;-81
2024/02/19 10:13:36;;;;;;;11.77;4.00;;;11.10;99.90;;;;;;4916351;29;20257;-84
2024/02/19 10:16:06;;;;;;;12.37;3.37;;;11.10;99.90;;;;;;4915873;29;20269;-79
2024/02/19 10:18:34;;;;;;;11.23;3.97;;;11.00;99.90;;;;;;4916356;29;20214;-84
2024/02/19 10:21:01;;;;;;;9.50;3.40;;;11.00;99.90;;;;;;4919868;29;20301;-80
2024/02/19 10:23:28;;;;;;;9.50;3.70;;;11.10;99.90;;;;;;4919584;29;20298;-80
2024/02/19 10:25:55;;;;;;;9.17;3.20;;;10.90;99.90;;;;;;4916057;29;20328;-76
2024/02/19 10:28:23;;;;;;;9.90;3.93;;;10.90;99.90;;;;;;4917882;29;20214;-83
2024/02/19 10:30:50;;;;;;;12.20;4.23;;;10.90;99.90;;;;;;4919370;29;20233;-78
2024/02/19 10:33:16;;;;;;;10.87;3.70;;;10.80;99.90;;;;;;4918755;29;20236;-80
2024/02/19 10:35:45;;;;;;;6.23;2.83;;;10.60;99.90;;;;;;4918691;29;20305;-77
2024/02/19 10:38:13;;;;;;;8.03;3.53;;;10.50;99.90;;;;;;4919291;29;20218;-79
2024/02/19 10:40:40;;;;;;;10.93;3.40;;;10.40;99.90;;;;;;4919041;29;20635;-77
2024/02/19 10:43:07;;;;;;;8.17;4.03;;;10.40;99.90;;;;;;4918716;29;20320;-79
2024/02/19 10:45:34;;;;;;;11.30;3.97;;;10.40;99.90;;;;;;4918547;29;20242;-77
2024/02/19 10:48:02;;;;;;;7.43;3.23;;;10.40;99.90;;;;;;4918917;29;20359;-79
2024/02/19 10:50:33;;;;;;;12.47;4.47;;;10.60;99.90;;;;;;4919390;29;20398;-77
2024/02/19 10:53:01;;;;;;;9.20;3.50;;;10.50;99.90;;;;;;4918861;29;20316;-80
2024/02/19 10:55:29;;;;;;;9.93;3.53;;;10.50;99.90;;;;;;4918689;29;20336;-77
2024/02/19 10:57:56;;;;;;;9.67;3.93;;;10.60;99.90;;;;;;4918733;29;20301;-77
2024/02/19 11:00:26;;;;;;;16.30;3.53;;;10.60;99.90;;;;;;4918986;29;20264;-79
2024/02/19 11:03:04;;;;;;;12.27;3.10;;;10.60;99.90;;;;;;4918821;29;20229;-79
2024/02/19 11:05:34;;;;;;;6.80;3.03;;;10.70;99.90;;;;;;4918715;29;20708;-82
2024/02/19 11:08:03;;;;;;;8.37;3.67;;;10.70;99.90;;;;;;4918693;29;20669;-81
2024/02/19 11:10:40;;;;;;;11.03;3.43;;;10.80;99.90;;;;;;4918818;29;20308;-79
2024/02/19 11:13:07;;;;;;;12.80;3.67;;;10.90;99.90;;;;;;4918218;29;20233;-79
2024/02/19 11:15:34;;;;;;;11.50;4.07;;;11.00;99.90;;;;;;4918484;29;20221;-79
2024/02/19 11:18:10;;;;;;;12.37;3.40;;;11.10;99.90;;;;;;4918326;29;20210;-81
2024/02/19 11:20:37;;;;;;;12.57;4.10;;;11.10;99.90;;;;;;4918694;29;20220;-81
2024/02/19 11:23:06;;;;;;;11.77;3.53;;;11.10;99.90;;;;;;4918092;29;20236;-82
2024/02/19 11:25:33;;;;;;;6.80;3.07;;;11.10;99.90;;;;;;4918382;29;20327;-82
2024/02/19 11:28:02;;;;;;;8.83;3.67;;;11.00;99.90;;;;;;4918784;29;20297;-79
2024/02/19 11:30:31;;;;;;;10.40;3.77;;;10.90;99.90;;;;;;4917423;29;20214;-79
2024/02/19 11:33:01;;;;;;;7.43;2.70;;;11.00;99.90;;;;;;4918262;29;20312;-79
2024/02/19 11:35:28;;;;;;;6.37;2.90;;;11.10;99.90;;;;;;4917983;29;20214;-79
2024/02/19 11:37:55;;;;;;;7.90;3.63;;;11.10;99.90;;;;;;4918143;29;20216;-80
2024/02/19 11:40:27;;;;;;;5.93;2.80;;;11.10;99.90;;;;;;4918427;29;20280;-79
2024/02/19 11:42:54;;;;;;;8.17;2.83;;;11.10;99.90;;;;;;4917813;29;20225;-79
2024/02/19 11:45:22;;;;;;;8.03;2.80;;;11.10;99.90;;;;;;4918137;29;20320;-79
2024/02/19 11:47:49;;;;;;;10.43;2.77;;;11.00;99.90;;;;;;4917581;29;20202;-80
2024/02/19 11:50:20;;;;;;;6.93;2.47;;;11.10;99.90;;;;;;4918188;29;20296;-82
2024/02/19 11:52:47;;;;;;;9.23;3.17;;;11.10;99.90;;;;;;4918245;29;20226;-78
2024/02/19 11:55:19;;;;;;;10.97;3.07;;;11.10;99.90;;;;;;4917798;29;20593;-78
2024/02/19 11:57:49;;;;;;;5.50;2.17;;;11.30;99.90;;;;;;4899311;29;20210;-79
2024/02/19 12:00:16;;;;;;;6.13;2.77;;;11.20;99.90;;;;;;4907724;29;20209;-79
2024/02/19 12:02:44;;;;;;;4.93;2.20;;;11.10;99.90;;;;;;4917723;29;20723;-79
2024/02/19 12:05:11;;;;;;;6.57;2.37;;;11.10;99.90;;;;;;4918023;29;20220;-78
2024/02/19 12:07:39;;;;;;;8.13;2.50;;;11.10;99.90;;;;;;4917658;29;20220;-77
2024/02/19 12:10:09;;;;;;;7.07;2.00;;;11.20;99.90;;;;;;4917839;29;20214;-79
2024/02/19 12:12:37;;;;;;;4.33;1.83;;;11.20;99.90;;;;;;4917912;29;20229;-79
2024/02/19 12:15:11;;;;;;;6.53;2.40;;;11.20;99.90;;;;;;4917745;29;20201;-79
2024/02/19 12:17:38;;;;;;;6.27;1.70;;;11.10;99.90;;;;;;4917269;29;20221;-78
2024/02/19 12:20:10;;;;;;;4.20;1.73;;;11.10;99.90;;;;;;4917664;29;20206;-79
2024/02/19 12:22:37;;;;;;;7.43;2.07;;;11.10;99.90;;;;;;4917607;29;20233;-78
2024/02/19 12:25:04;;;;;;;4.47;1.70;;;11.20;99.90;;;;;;4917413;29;20213;-79
2024/02/19 12:27:31;;;;;;;6.10;1.90;;;11.10;99.90;;;;;;4917334;29;20681;-79
2024/02/19 12:29:58;;;;;;;5.23;1.53;;;11.20;99.90;;;;;;4916986;29;20248;-80
2024/02/19 12:32:27;;;;;;;3.43;1.60;;;11.30;99.90;;;;;;4917113;29;20248;-81
2024/02/19 12:34:54;;;;;;;6.30;1.73;;;11.40;99.90;;;;;;4917368;29;20277;-80
2024/02/19 12:37:22;;;;;;;6.17;2.17;;;11.60;99.90;;;;;;4917410;29;20205;-79
2024/02/19 12:39:49;;;;;;;4.10;1.40;;;11.60;99.90;;;;;;4917715;29;20660;-80
2024/02/19 12:42:17;;;;;;;5.27;1.83;;;11.70;99.90;;;;;;4916945;29;20301;-80
2024/02/19 12:44:43;;;;;;;4.23;1.70;;;11.80;99.90;;;;;;4917671;29;20662;-81
2024/02/19 12:47:10;;;;;;;6.83;2.30;;;11.80;99.90;;;;;;4917236;29;20324;-80
2024/02/19 12:49:39;;;;;;;4.00;1.77;;;11.70;99.90;;;;;;4917759;29;20302;-80
2024/02/19 12:52:08;;;;;;;4.60;1.47;;;11.80;99.90;;;;;;4917455;29;20688;-79
2024/02/19 12:54:35;;;;;;;5.10;1.90;;;11.90;99.90;;;;;;4917493;29;20226;-80
2024/02/19 12:57:04;;;;;;;8.07;2.17;;;11.90;99.90;;;;;;4915827;29;20571;-80
2024/02/19 12:59:30;;;;;;;7.27;1.90;;;11.80;99.90;;;;;;4918124;29;20698;-80
2024/02/19 13:01:57;;;;;;;2.83;1.47;;;11.80;99.90;;;;;;4918180;29;20205;-81
2024/02/19 13:04:24;;;;;;;3.77;1.80;;;11.80;99.90;;;;;;4917683;29;20233;-81
2024/02/19 13:06:52;;;;;;;4.57;1.90;;;11.90;99.90;;;;;;4918120;29;20251;-80
2024/02/19 13:09:19;;;;;;;4.77;1.90;;;11.90;99.90;;;;;;4917117;29;20304;-80
2024/02/19 13:11:46;;;;;;;5.93;1.87;;;12.00;99.90;;;;;;4916809;29;20215;-79
2024/02/19 13:14:13;;;;;;;5.27;1.83;;;11.90;99.90;;;;;;4916722;29;20233;-80
2024/02/19 13:16:40;;;;;;;4.30;1.50;;;11.70;99.90;;;;;;4916247;29;20256;-80
2024/02/19 13:19:08;;;;;;;2.90;1.50;;;11.70;99.90;;;;;;4916665;29;20296;-80
2024/02/19 13:21:35;;;;;;;3.53;1.60;;;11.60;99.90;;;;;;4916761;29;20296;-80
2024/02/19 13:24:03;;;;;;;5.90;1.33;;;11.60;99.90;;;;;;4917398;29;20316;-80
2024/02/19 13:26:30;;;;;;;7.10;1.70;;;11.60;99.90;;;;;;4917794;29;20243;-79
2024/02/19 13:28:57;;;;;;;3.10;1.43;;;11.70;99.90;;;;;;4918104;29;20674;-80
2024/02/19 13:31:24;;;;;;;4.00;1.70;;;11.70;99.90;;;;;;4917921;29;20218;-79
2024/02/19 13:33:51;;;;;;;6.10;2.07;;;11.80;99.90;;;;;;4917615;29;20269;-79
2024/02/19 13:36:19;;;;;;;5.53;1.40;;;11.90;99.90;;;;;;4918512;29;20296;-79
2024/02/19 13:38:47;;;;;;;6.67;1.33;;;11.90;99.90;;;;;;4918498;29;20209;-79
2024/02/19 13:41:15;;;;;;;4.63;1.40;;;12.00;99.90;;;;;;4918483;29;20237;-80
2024/02/19 13:43:44;;;;;;;2.33;1.07;;;12.10;99.90;;;;;;4916572;29;20264;-80
2024/02/19 13:46:12;;;;;;;5.37;1.37;;;12.10;99.90;;;;;;4916896;29;20293;-80
2024/02/19 13:48:39;;;;;;;1.70;1.27;;;12.10;99.90;;;;;;4916463;29;20206;-80
2024/02/19 13:51:06;;;;;;;4.57;1.30;;;12.10;99.90;;;;;;4916566;29;20252;-79
2024/02/19 13:53:34;;;;;;;3.60;1.40;;;12.10;99.90;;;;;;4916468;29;20320;-80
2024/02/19 13:56:01;;;;;;;3.83;1.30;;;12.10;99.90;;;;;;4920091;29;20739;-80
2024/02/19 13:58:29;;;;;;;1.63;1.00;;;12.10;99.90;;;;;;4921877;29;20304;-80
2024/02/19 14:00:57;;;;;;;3.10;1.40;;;12.00;99.90;;;;;;4923493;29;20237;-82
2024/02/19 14:03:24;;;;;;;3.33;1.20;;;12.00;99.90;;;;;;4924018;29;20233;-80
2024/02/19 14:05:51;;;;;;;3.17;0.80;;;11.90;99.90;;;;;;4926767;29;20264;-80
2024/02/19 14:08:20;;;;;;;3.47;1.10;;;11.90;99.90;;;;;;4928447;29;20240;-80
2024/02/19 14:10:47;;;;;;;2.20;1.30;;;12.00;99.90;;;;;;4926062;29;20219;-80
2024/02/19 14:13:15;;;;;;;7.67;1.20;;;11.90;99.90;;;;;;4921943;29;20233;-79
2024/02/19 14:15:43;;;;;;;3.87;1.00;;;11.90;99.90;;;;;;4920709;29;20305;-81
2024/02/19 14:18:10;;;;;;;2.37;1.17;;;11.90;99.90;;;;;;4928067;29;20206;-80
2024/02/19 14:20:37;;;;;;;2.17;1.10;;;11.90;99.90;;;;;;4923040;29;20706;-83
2024/02/19 14:23:06;;;;;;;6.63;1.40;;;12.00;99.90;;;;;;4920035;29;20316;-82
2024/02/19 14:25:34;;;;;;;2.70;1.20;;;11.80;99.90;;;;;;4920372;29;20210;-83
2024/02/19 14:28:02;;;;;;;7.07;1.60;;;11.70;99.90;;;;;;4919363;29;20247;-81
2024/02/19 14:30:29;;;;;;;8.10;2.20;;;11.70;99.90;;;;;;4919581;29;20214;-81
2024/02/19 14:32:57;;;;;;;3.10;0.83;;;11.50;99.90;;;;;;4919327;29;20249;-81
2024/02/19 14:35:25;;;;;;;2.73;1.33;;;11.20;99.90;;;;;;4919254;29;20576;-82
2024/02/19 14:37:52;;;;;;;4.63;1.07;;;11.20;99.90;;;;;;4919652;29;20209;-81
2024/02/19 14:40:19;;;;;;;3.30;1.03;;;11.30;99.90;;;;;;4919276;29;20209;-81
2024/02/19 14:42:46;;;;;;;2.30;1.40;;;11.10;99.90;;;;;;4919256;29;20256;-81
2024/02/19 14:45:13;;;;;;;6.50;1.50;;;11.00;99.90;;;;;;4919228;29;20300;-81
2024/02/19 14:47:43;;;;;;;2.63;1.03;;;11.10;99.90;;;;;;4918685;29;20239;-81
2024/02/19 14:50:12;;;;;;;7.97;1.43;;;11.10;99.90;;;;;;4919196;29;20213;-81
2024/02/19 14:52:40;;;;;;;7.30;1.10;;;11.20;99.90;;;;;;4918955;29;20320;-82
2024/02/19 14:55:09;;;;;;;3.93;1.00;;;11.20;99.90;;;;;;4919149;29;20296;-81
2024/02/19 14:57:37;;;;;;;3.17;0.97;;;11.20;99.90;;;;;;4919111;29;20210;-82
2024/02/19 15:00:09;;;;;;;2.73;0.93;;;11.40;99.90;;;;;;4919045;29;20209;-81
2024/02/19 15:02:36;;;;;;;2.70;1.00;;;11.30;99.90;;;;;;4919197;29;20237;-81
2024/02/19 15:05:03;;;;;;;3.03;1.27;;;11.20;99.90;;;;;;4918800;29;20209;-81
2024/02/19 15:07:32;;;;;;;4.73;1.70;;;11.20;99.90;;;;;;4918547;29;20242;-81
2024/02/19 15:09:59;;;;;;;6.97;1.27;;;11.30;99.90;;;;;;4918781;29;20300;-83
2024/02/19 15:12:26;;;;;;;4.50;1.07;;;11.40;99.90;;;;;;4918856;29;20252;-81
2024/02/19 15:14:53;;;;;;;2.00;0.97;;;11.40;99.90;;;;;;4918801;29;20296;-82
2024/02/19 15:17:21;;;;;;;3.50;1.10;;;11.40;99.90;;;;;;4918513;29;20316;-82
2024/02/19 15:19:47;;;;;;;5.07;1.30;;;11.40;99.90;;;;;;4918997;29;20300;-82
2024/02/19 15:22:15;;;;;;;6.60;1.40;;;11.50;99.90;;;;;;4918952;29;20237;-82
2024/02/19 15:24:43;;;;;;;3.47;1.13;;;11.50;99.90;;;;;;4918918;29;20216;-83
2024/02/19 15:27:11;;;;;;;5.17;1.20;;;11.60;99.90;;;;;;4919041;29;20404;-81
2024/02/19 15:29:38;;;;;;;6.17;1.40;;;11.40;99.90;;;;;;4918964;29;20232;-81
2024/02/19 15:32:07;;;;;;;4.80;1.30;;;11.50;99.90;;;;;;4918828;29;20240;-81
2024/02/19 15:34:34;;;;;;;6.00;1.20;;;11.50;99.90;;;;;;4918531;29;20268;-81
2024/02/19 15:37:01;;;;;;;5.03;1.33;;;11.50;99.90;;;;;;4918338;29;20300;-81
2024/02/19 15:39:29;;;;;;;6.30;1.50;;;11.40;99.90;;;;;;4918444;29;20206;-81
2024/02/19 15:41:57;;;;;;;5.33;1.40;;;11.30;99.90;;;;;;4918525;29;20212;-81
2024/02/19 15:44:24;;;;;;;2.83;1.50;;;11.30;99.90;;;;;;4918427;29;20253;-81
2024/02/19 15:46:52;;;;;;;6.60;1.63;;;11.40;99.90;;;;;;4917892;29;20587;-81
2024/02/19 15:49:20;;;;;;;3.37;1.57;;;11.50;99.90;;;;;;4918777;29;20297;-83
2024/02/19 15:51:47;;;;;;;2.47;1.03;;;11.40;99.90;;;;;;4918237;29;20205;-81
2024/02/19 15:54:14;;;;;;;4.27;1.37;;;11.40;99.90;;;;;;4918030;29;20229;-81
2024/02/19 15:56:41;;;;;;;4.63;1.80;;;11.40;99.90;;;;;;4918275;29;20241;-82
2024/02/19 15:59:09;;;;;;;3.47;1.37;;;11.30;99.90;;;;;;4918058;29;20218;-83
2024/02/19 16:01:36;;;;;;;1.70;1.40;;;11.20;99.90;;;;;;4918409;29;20237;-82
2024/02/19 16:04:04;;;;;;;3.00;1.20;;;11.20;99.90;;;;;;4918174;29;20316;-81
2024/02/19 16:06:31;;;;;;;4.00;1.30;;;11.00;99.90;;;;;;4918355;29;20225;-82
2024/02/19 16:09:00;;;;;;;6.03;1.23;;;10.90;99.90;;;;;;4918188;29;20249;-84
2024/02/19 16:11:27;;;;;;;1.93;1.03;;;11.00;99.90;;;;;;4918461;29;20221;-83
2024/02/19 16:13:56;;;;;;;3.53;1.30;;;10.90;99.90;;;;;;4918947;29;20248;-81
2024/02/19 16:16:25;;;;;;;3.00;1.20;;;11.00;99.90;;;;;;4917401;29;20245;-83
2024/02/19 16:18:52;;;;;;;3.93;1.00;;;11.00;99.90;;;;;;4918197;29;20249;-84
2024/02/19 16:21:19;;;;;;;3.67;1.10;;;10.90;99.90;;;;;;4918308;29;20635;-82
2024/02/19 16:23:45;;;;;;;4.13;1.10;;;10.90;99.90;;;;;;4918030;29;20226;-84
2024/02/19 16:26:12;;;;;;;3.63;1.30;;;10.80;99.90;;;;;;4918345;29;20245;-84
2024/02/19 16:28:41;;;;;;;2.70;1.00;;;10.80;99.90;;;;;;4917981;29;20237;-82
2024/02/19 16:31:10;;;;;;;3.10;1.40;;;10.80;99.90;;;;;;4917912;29;20608;-84
2024/02/19 16:33:38;;;;;;;3.20;1.40;;;10.90;99.90;;;;;;4917848;29;20244;-82
2024/02/19 16:36:06;;;;;;;4.70;1.53;;;10.90;99.90;;;;;;4918389;29;20292;-84
2024/02/19 16:38:37;;;;;;;7.93;2.77;;;10.80;99.90;;;;;;4917831;29;20616;-83
2024/02/19 16:41:04;;;;;;;7.10;1.70;;;10.80;99.90;;;;;;4918037;29;20257;-83
2024/02/19 16:43:32;;;;;;;7.47;1.80;;;10.70;99.90;;;;;;4917169;29;20248;-82
2024/02/19 16:45:59;;;;;;;4.30;1.33;;;10.70;99.90;;;;;;4917546;29;20217;-82
2024/02/19 16:48:26;;;;;;;7.10;1.47;;;10.70;99.90;;;;;;4917716;29;20261;-82
2024/02/19 16:50:56;;;;;;;3.70;1.07;;;10.70;99.90;;;;;;4917276;29;20671;-81
2024/02/19 16:53:23;;;;;;;4.10;1.23;;;10.70;99.90;;;;;;4917244;29;20236;-83
2024/02/19 16:55:50;;;;;;;2.30;1.40;;;10.70;99.90;;;;;;4917324;29;20304;-83
2024/02/19 16:58:18;;;;;;;3.30;1.63;;;10.70;99.90;;;;;;4917380;29;20210;-83
2024/02/19 17:00:46;;;;;;;5.03;1.30;;;10.40;99.90;;;;;;4917564;29;20301;-83
2024/02/19 17:03:15;;;;;;;4.07;1.40;;;10.40;99.90;;;;;;4919625;29;20225;-83
2024/02/19 17:05:42;;;;;;;7.00;1.60;;;10.40;99.90;;;;;;4928975;29;20214;-81
2024/02/19 17:08:10;;;;;;;6.47;2.60;;;10.40;99.90;;;;;;4929102;29;20268;-82
2024/02/19 17:10:38;;;;;;;4.77;1.20;;;10.30;99.90;;;;;;4917981;29;20736;-84
2024/02/19 17:13:05;;;;;;;5.10;1.40;;;10.30;99.90;;;;;;4917222;29;20261;-83
2024/02/19 17:15:32;;;;;;;6.20;1.83;;;10.30;99.90;;;;;;4916768;29;20225;-82
2024/02/19 17:17:59;;;;;;;2.67;1.37;;;10.20;99.90;;;;;;4917461;29;20256;-82
2024/02/19 17:20:26;;;;;;;3.30;1.70;;;10.20;99.90;;;;;;4917169;29;20300;-83
2024/02/19 17:22:53;;;;;;;3.87;1.67;;;10.20;99.90;;;;;;4916963;29;20402;-83
2024/02/19 17:25:21;;;;;;;3.20;1.30;;;10.20;99.90;;;;;;4912865;29;20292;-79
2024/02/19 17:27:48;;;;;;;3.37;1.57;;;10.20;99.90;;;;;;4916098;29;20324;-79
2024/02/19 17:30:16;;;;;;;5.67;1.90;;;10.20;99.90;;;;;;4919033;29;20214;-84
2024/02/19 17:32:45;;;;;;;4.83;1.53;;;10.30;99.90;;;;;;4918007;29;20237;-81
2024/02/19 17:35:11;;;;;;;2.40;1.10;;;10.30;99.90;;;;;;4916172;29;20205;-83
2024/02/19 17:37:39;;;;;;;9.77;1.97;;;10.30;99.90;;;;;;4919553;29;20237;-82
2024/02/19 17:40:09;;;;;;;5.43;1.50;;;10.30;99.90;;;;;;4916490;29;20201;-80
2024/02/19 17:42:37;;;;;;;7.30;1.97;;;10.40;99.90;;;;;;4919114;29;20731;-81
2024/02/19 17:45:05;;;;;;;5.20;1.57;;;10.40;99.90;;;;;;4918937;29;20296;-81
2024/02/19 17:47:32;;;;;;;5.03;1.67;;;10.40;99.90;;;;;;4919053;29;20229;-82
2024/02/19 17:50:00;;;;;;;2.53;1.50;;;10.40;99.90;;;;;;4916369;29;20631;-83
2024/02/19 17:52:27;;;;;;;4.67;1.50;;;10.40;99.90;;;;;;4918920;29;20197;-82
2024/02/19 17:54:59;;;;;;;4.83;1.80;;;10.40;99.90;;;;;;4919297;29;20273;-84
2024/02/19 17:57:26;;;;;;;3.97;1.47;;;10.40;99.90;;;;;;4919654;29;20202;-80
2024/02/19 17:59:54;;;;;;;5.80;1.60;;;10.40;99.90;;;;;;4918807;29;20202;-77
2024/02/19 18:02:24;;;;;;;6.83;1.30;;;10.50;99.90;;;;;;4916470;29;20288;-79
2024/02/19 18:04:54;;;;;;;7.00;2.00;;;10.60;99.90;;;;;;4916886;29;20217;-82
2024/02/19 18:07:21;;;;;;;9.37;1.90;;;10.70;99.90;;;;;;4916501;29;20240;-76
2024/02/19 18:09:48;;;;;;;5.37;1.70;;;10.70;99.90;;;;;;4917608;29;20204;-77
2024/02/19 18:12:15;;;;;;;6.90;2.03;;;10.50;99.90;;;;;;4918696;29;20201;-75
2024/02/19 18:14:41;;;;;;;4.03;1.30;;;10.50;99.90;;;;;;4918551;29;20206;-77
2024/02/19 18:17:10;;;;;;;4.87;1.60;;;10.30;99.90;;;;;;4917690;29;20699;-77
2024/02/19 18:19:36;;;;;;;3.83;1.10;;;10.40;99.90;;;;;;4918337;29;20205;-77
2024/02/19 18:22:05;;;;;;;10.40;3.20;;;10.20;99.90;;;;;;4918505;29;20241;-80
2024/02/19 18:24:31;;;;;;;4.53;1.27;;;10.20;99.90;;;;;;4918178;29;20226;-79
2024/02/19 18:26:59;;;;;;;4.53;1.80;;;10.00;99.90;;;;;;4916297;29;20202;-74
2024/02/19 18:29:26;;;;;;;5.60;2.10;;;10.00;99.90;;;;;;4913828;29;20202;-74
2024/02/19 18:31:55;;;;;;;4.83;2.10;;;10.00;99.90;;;;;;4914995;29;20205;-76
2024/02/19 18:34:25;;;;;;;3.90;1.43;;;9.90;99.90;;;;;;4917358;29;20230;-76
2024/02/19 18:36:54;;;;;;;6.00;1.57;;;9.80;99.90;;;;;;4918766;29;20300;-74
2024/02/19 18:39:21;;;;;;;8.17;1.60;;;9.70;99.90;;;;;;4917619;29;20219;-74
2024/02/19 18:41:50;;;;;;;4.60;1.83;;;9.70;99.90;;;;;;4915596;29;20213;-77
2024/02/19 18:44:17;;;;;;;6.63;1.90;;;9.70;99.90;;;;;;4915965;29;20225;-77
2024/02/19 18:46:44;;;;;;;5.20;1.93;;;9.70;99.90;;;;;;4917883;29;20216;-77
2024/02/19 18:49:14;;;;;;;7.47;1.90;;;9.70;99.90;;;;;;4917522;29;20237;-77
2024/02/19 18:51:45;;;;;;;6.27;1.93;;;9.60;99.90;;;;;;4917786;29;20210;-77
2024/02/19 18:54:13;;;;;;;7.60;2.10;;;9.70;99.90;;;;;;4917510;29;20705;-77
2024/02/19 18:56:40;;;;;;;5.27;2.00;;;9.50;99.90;;;;;;4917993;29;20214;-77
2024/02/19 18:59:07;;;;;;;9.63;2.30;;;9.60;99.90;;;;;;4914507;29;20577;-77
2024/02/19 19:01:33;;;;;;;6.90;1.60;;;9.60;99.90;;;;;;4914661;29;20666;-78
2024/02/19 19:04:00;;;;;;;8.63;1.70;;;9.60;99.90;;;;;;4918017;29;20233;-77
2024/02/19 19:06:27;;;;;;;6.00;1.50;;;9.70;99.90;;;;;;4915138;29;20202;-77
2024/02/19 19:08:58;;;;;;;4.80;1.77;;;9.70;99.90;;;;;;4917712;29;20709;-77
2024/02/19 19:11:25;;;;;;;9.03;1.90;;;9.80;99.90;;;;;;4917601;29;20682;-78
2024/02/19 19:13:52;;;;;;;4.07;1.60;;;9.90;99.90;;;;;;4917609;29;20225;-77
2024/02/19 19:16:19;;;;;;;6.67;1.80;;;10.00;99.90;;;;;;4917994;29;20401;-77
2024/02/19 19:18:48;;;;;;;9.43;2.30;;;10.00;99.90;;;;;;4917546;29;20277;-77
2024/02/19 19:21:15;;;;;;;4.03;2.23;;;10.10;99.90;;;;;;4917356;29;20206;-77
2024/02/19 19:23:44;;;;;;;9.70;1.80;;;10.20;99.90;;;;;;4916369;29;20226;-76
2024/02/19 19:26:12;;;;;;;10.07;1.83;;;10.20;99.90;;;;;;4910752;29;20229;-77
2024/02/19 19:28:40;;;;;;;4.80;1.40;;;10.30;99.90;;;;;;4912022;29;20230;-78
2024/02/19 19:31:07;;;;;;;6.13;1.57;;;10.40;99.90;;;;;;4917039;29;20621;-77
2024/02/19 19:33:34;;;;;;;6.67;1.93;;;10.30;99.90;;;;;;4913810;29;20308;-78
2024/02/19 19:36:01;;;;;;;7.07;2.13;;;10.30;99.90;;;;;;4917229;29;20213;-78
2024/02/19 19:38:28;;;;;;;8.50;2.00;;;10.30;99.90;;;;;;4917379;29;20210;-78
2024/02/19 19:40:56;;;;;;;5.77;2.00;;;10.20;99.90;;;;;;4917436;29;20259;-78
2024/02/19 19:43:25;;;;;;;4.50;2.17;;;10.20;99.90;;;;;;4917362;29;20401;-77
2024/02/19 19:45:52;;;;;;;4.07;1.97;;;10.20;99.90;;;;;;4917529;29;20201;-77
2024/02/19 19:48:24;;;;;;;4.67;1.83;;;10.20;99.90;;;;;;4916657;29;20245;-77
2024/02/19 19:50:52;;;;;;;9.70;2.33;;;10.20;99.90;;;;;;4917145;29;20245;-77
2024/02/19 19:53:19;;;;;;;6.80;2.47;;;10.20;99.90;;;;;;4917018;29;20273;-77
2024/02/19 19:55:46;;;;;;;7.10;1.67;;;10.20;99.90;;;;;;4917761;29;20210;-76
2024/02/19 19:58:13;;;;;;;10.17;2.40;;;10.30;99.90;;;;;;4917544;29;20205;-78
2024/02/19 20:00:41;;;;;;;6.87;2.07;;;10.20;99.90;;;;;;4917108;29;20314;-76
2024/02/19 20:03:08;;;;;;;9.27;2.70;;;10.30;99.90;;;;;;4917098;29;20225;-77
2024/02/19 20:05:35;;;;;;;12.40;2.50;;;10.10;99.90;;;;;;4915848;29;20210;-77
2024/02/19 20:08:02;;;;;;;11.07;2.23;;;10.10;99.90;;;;;;4915693;29;20230;-77
2024/02/19 20:10:29;;;;;;;17.23;3.47;;;9.90;99.90;;;;;;4915860;29;20210;-77
2024/02/19 20:12:56;;;;;;;11.23;2.53;;;9.90;99.90;;;;;;4916634;29;20283;-77
2024/02/19 20:15:26;;;;;;;5.90;2.47;;;10.00;99.90;;;;;;4916697;29;20212;-77
2024/02/19 20:17:55;;;;;;;7.63;2.37;;;10.00;99.90;;;;;;4915884;29;20305;-77
2024/02/19 20:20:22;;;;;;;7.83;2.30;;;10.00;99.90;;;;;;4911511;29;20213;-77
2024/02/19 20:22:49;;;;;;;10.30;2.33;;;9.90;99.90;;;;;;4916499;29;20225;-77
2024/02/19 20:25:19;;;;;;;6.80;2.40;;;9.90;99.90;;;;;;4917022;29;20304;-77
2024/02/19 20:27:46;;;;;;;9.43;2.13;;;10.00;99.90;;;;;;4916761;29;20293;-77
2024/02/19 20:30:13;;;;;;;5.70;2.10;;;10.10;99.90;;;;;;4916266;29;20296;-77
2024/02/19 20:32:40;;;;;;;6.77;2.73;;;10.00;99.90;;;;;;4916013;29;20311;-77
2024/02/19 20:35:09;;;;;;;11.03;1.93;;;10.00;99.90;;;;;;4916880;29;20223;-77
2024/02/19 20:37:36;;;;;;;6.70;2.30;;;10.10;99.90;;;;;;4916699;29;20204;-76
2024/02/19 20:40:04;;;;;;;7.67;2.50;;;10.00;99.90;;;;;;4913353;29;20216;-76
2024/02/19 20:42:31;;;;;;;6.53;2.23;;;10.00;99.90;;;;;;4912528;29;20206;-76
2024/02/19 20:44:58;;;;;;;6.10;2.10;;;10.00;99.90;;;;;;4916038;29;20210;-77
2024/02/19 20:47:25;;;;;;;9.27;2.33;;;10.10;99.90;;;;;;4916240;29;20292;-77
2024/02/19 20:49:53;;;;;;;7.07;2.50;;;10.20;99.90;;;;;;4916263;29;20331;-77
2024/02/19 20:52:21;;;;;;;12.13;2.73;;;10.20;99.90;;;;;;4916237;29;20296;-77
2024/02/19 20:54:51;;;;;;;5.53;2.50;;;10.20;99.90;;;;;;4916427;29;20210;-77
2024/02/19 20:57:18;;;;;;;9.07;2.67;;;10.20;99.90;;;;;;4916237;29;20296;-77
2024/02/19 20:59:45;;;;;;;11.33;2.57;;;10.10;99.90;;;;;;4916441;29;20243;-76
2024/02/19 21:02:12;;;;;;;9.73;2.60;;;10.00;99.90;;;;;;4916302;29;20312;-77
2024/02/19 21:04:39;;;;;;;6.20;2.20;;;9.90;99.90;;;;;;4915900;29;20574;-77